Glocester, Rhode Island
Current Conditions -  °F | °C
As of 9:15 AM on Tuesday 27 Jan 2015 (Local Time) from KSFZ Reporting Station
Overcast Overcast  
Wind Chill: -3°   Ceiling: 800
Heat Index: 16°   Visibility: 0.5mi
Dew Point:   Wind: 24mph
Humidity: 68%   Direction: 10°N
Pressure: 29.45"   Gusts: 31mph
Location:  41.8875°N, 71.5975°W
Report Text: KSFZ 271415Z 01021G27KT 1/2SM OVC008 M09/M14 A2945 RMK AO1
Loading
Personal Weather Stations






























Interactive Weather Map New forecast layout! Learn more

10-Day Weather Forecast

Advertisements
Track Severe Weather on mobile